Time;durP1;ratioP1;P1;durP2;ratioP2;P2;SDS_P1;SDS_P2;PMS_P1;PMS_P2;Temp;Humidity;BMP_temperature;BMP_pressure;BME280_temperature;BME280_humidity;BME280_pressure;Samples;Min_cycle;Max_cycle;Signal;HPM_P1;HPM_P2
2022/06/29 00:02:22;;;;;;;;;;;;;;;21.55;57.89;97881.59;5102829;27;19920;-62
2022/06/29 00:04:50;;;;;;;;;;;;;;;21.54;57.88;97882.00;5098380;27;19951;-61
2022/06/29 00:07:20;;;;;;;;;;;;;;;21.52;57.84;97876.84;5082783;27;19920;-62
2022/06/29 00:09:48;;;;;;;;;;;;;;;21.47;58.22;97874.47;5097330;27;19920;-62
2022/06/29 00:12:16;;;;;;;;;;;;;;;21.41;58.33;97875.97;5099399;27;20014;-62
2022/06/29 00:14:46;;;;;;;;;;;;;;;21.42;58.47;97870.06;5107456;27;20008;-62
2022/06/29 00:17:20;;;;;;;;;;;;;;;21.49;58.47;97871.31;5107862;27;19920;-62
2022/06/29 00:19:49;;;;;;;;;;;;;;;21.50;58.29;97884.72;5085975;28;19920;-62
2022/06/29 00:22:17;;;;;;;;;;;;;;;21.51;58.45;97882.75;5098354;27;19946;-61
2022/06/29 00:24:45;;;;;;;;;;;;;;;21.50;58.58;97887.50;5101382;28;19973;-61
2022/06/29 00:27:13;;;;;;;;;;;;;;;21.49;58.62;97885.91;5104276;27;19985;-62
2022/06/29 00:29:41;;;;;;;;;;;;;;;21.53;58.58;97889.50;5108067;27;20335;-61
2022/06/29 00:32:14;;;;;;;;;;;;;;;21.52;58.62;97878.81;5107743;27;20290;-53
2022/06/29 00:34:43;;;;;;;;;;;;;;;21.47;59.27;97884.72;5101056;28;19940;-61
2022/06/29 00:37:13;;;;;;;;;;;;;;;21.47;58.88;97884.72;5093757;28;20309;-62
2022/06/29 00:39:42;;;;;;;;;;;;;;;21.42;59.29;97889.41;5108507;27;20229;-60
2022/06/29 00:42:12;;;;;;;;;;;;;;;21.52;59.16;97887.09;5095116;28;19950;-60
2022/06/29 00:44:42;;;;;;;;;;;;;;;21.48;59.29;97873.28;5101030;28;20003;-63
2022/06/29 00:47:13;;;;;;;;;;;;;;;21.60;58.90;97880.44;5099731;28;20346;-61
2022/06/29 00:49:43;;;;;;;;;;;;;;;21.47;59.21;97879.97;5100054;27;19931;-62
2022/06/29 00:52:35;;;;;;;;;;;;;;;21.58;59.29;97885.59;5105906;28;19923;-63
2022/06/29 00:55:06;;;;;;;;;;;;;;;21.47;59.51;97887.47;5095803;28;19938;-63
2022/06/29 00:57:35;;;;;;;;;;;;;;;21.45;59.41;97879.56;5106566;27;20023;-62
2022/06/29 01:00:03;;;;;;;;;;;;;;;21.36;60.05;97873.56;5089621;28;19942;-63
2022/06/29 01:02:33;;;;;;;;;;;;;;;21.34;60.21;97868.41;5104716;27;19939;-63
2022/06/29 01:05:01;;;;;;;;;;;;;;;21.31;60.50;97869.22;5095781;27;19932;-62
2022/06/29 01:07:30;;;;;;;;;;;;;;;21.33;60.17;97868.81;5103737;28;19920;-63
2022/06/29 01:09:58;;;;;;;;;;;;;;;21.36;60.07;97868.84;5099885;27;19963;-62
2022/06/29 01:12:27;;;;;;;;;;;;;;;21.38;59.86;97865.69;5104746;27;19944;-62
2022/06/29 01:14:55;;;;;;;;;;;;;;;21.27;60.30;97860.06;5099856;28;19920;-61
2022/06/29 01:17:26;;;;;;;;;;;;;;;21.30;60.41;97859.31;5104469;27;19968;-63
2022/06/29 01:19:56;;;;;;;;;;;;;;;21.23;60.73;97852.91;5098927;28;19932;-62
2022/06/29 01:22:27;;;;;;;;;;;;;;;21.19;61.08;97855.63;5096545;28;19919;-62
2022/06/29 01:24:56;;;;;;;;;;;;;;;21.21;60.83;97852.53;5099139;28;20005;-62
2022/06/29 01:27:24;;;;;;;;;;;;;;;21.05;61.36;97847.25;5105313;27;20395;-63
2022/06/29 01:29:53;;;;;;;;;;;;;;;21.02;61.44;97850.78;5105603;28;20213;-62
2022/06/29 01:32:24;;;;;;;;;;;;;;;21.05;61.23;97844.50;5100855;28;20036;-63
2022/06/29 01:34:53;;;;;;;;;;;;;;;21.09;61.04;97848.06;5100575;27;19920;-62
2022/06/29 01:37:20;;;;;;;;;;;;;;;21.14;60.87;97844.94;5092200;28;19983;-62
2022/06/29 01:39:50;;;;;;;;;;;;;;;21.06;61.32;97840.56;5089037;28;20368;-63
2022/06/29 01:42:18;;;;;;;;;;;;;;;21.09;61.13;97831.47;5100771;27;20010;-60
2022/06/29 01:44:46;;;;;;;;;;;;;;;21.03;61.22;97833.00;5106640;27;19997;-63
2022/06/29 01:47:15;;;;;;;;;;;;;;;21.05;61.15;97836.22;5106956;28;19919;-62
2022/06/29 01:49:46;;;;;;;;;;;;;;;21.05;61.13;97831.47;5103091;28;19935;-63
2022/06/29 01:55:07;;;;;;;;;;;;;;;20.99;61.28;97827.47;5096131;28;19924;-63
2022/06/29 01:57:35;;;;;;;;;;;;;;;21.00;61.32;97828.28;5099693;28;19965;-63
2022/06/29 02:00:03;;;;;;;;;;;;;;;20.91;61.54;97821.09;5101461;28;19920;-62
2022/06/29 02:02:34;;;;;;;;;;;;;;;20.93;61.53;97824.28;5092994;28;19920;-62
2022/06/29 02:05:02;;;;;;;;;;;;;;;20.96;61.65;97832.97;5104348;28;19920;-62
2022/06/29 02:07:30;;;;;;;;;;;;;;;20.97;61.38;97840.06;5103504;28;19924;-62
2022/06/29 02:09:58;;;;;;;;;;;;;;;20.98;61.30;97836.91;5095782;28;20395;-62
2022/06/29 02:12:27;;;;;;;;;;;;;;;20.92;61.78;97832.94;5095506;28;19992;-62
2022/06/29 02:14:55;;;;;;;;;;;;;;;20.91;61.64;97834.09;5106247;28;19928;-62
2022/06/29 02:17:23;;;;;;;;;;;;;;;20.91;61.59;97837.66;5100120;28;19936;-58
2022/06/29 02:19:51;;;;;;;;;;;;;;;20.97;61.61;97831.78;5099573;28;19955;-62
2022/06/29 02:22:20;;;;;;;;;;;;;;;20.96;61.31;97831.00;5104069;28;19920;-62
2022/06/29 02:24:49;;;;;;;;;;;;;;;20.90;61.72;97824.25;5103861;28;19924;-62
2022/06/29 02:27:28;;;;;;;;;;;;;;;20.90;61.58;97821.47;5096118;28;19920;-62
2022/06/29 02:29:56;;;;;;;;;;;;;;;20.88;61.72;97818.31;5109491;28;20000;-55
2022/06/29 02:35:09;;;;;;;;;;;;;;;20.89;61.85;97828.97;5105993;27;20371;-54
2022/06/29 02:37:38;;;;;;;;;;;;;;;20.80;61.90;97814.69;5095970;28;20023;-64
2022/06/29 02:40:06;;;;;;;;;;;;;;;20.81;62.07;97816.28;5106766;28;19924;-62
2022/06/29 02:42:35;;;;;;;;;;;;;;;20.67;62.54;97816.94;5105313;27;19923;-62
2022/06/29 02:45:23;;;;;;;;;;;;;;;20.79;62.10;97806.78;5106879;28;19927;-61
2022/06/29 02:47:51;;;;;;;;;;;;;;;20.72;62.23;97804.78;5105935;28;20313;-63
2022/06/29 02:50:19;;;;;;;;;;;;;;;20.67;62.62;97821.69;5105259;28;19924;-59
2022/06/29 02:52:48;;;;;;;;;;;;;;;20.63;62.65;97815.31;5105097;27;19927;-62
2022/06/29 02:55:16;;;;;;;;;;;;;;;20.66;62.38;97809.03;5102632;28;20360;-61
2022/06/29 02:57:45;;;;;;;;;;;;;;;20.60;62.85;97805.03;5103211;27;19973;-62
2022/06/29 03:00:13;;;;;;;;;;;;;;;20.61;62.69;97806.63;5101894;28;19981;-62
2022/06/29 03:02:41;;;;;;;;;;;;;;;20.63;62.55;97804.28;5098771;28;20339;-62
2022/06/29 03:05:09;;;;;;;;;;;;;;;20.60;62.55;97805.03;5106679;28;20602;-61
2022/06/29 03:07:38;;;;;;;;;;;;;;;20.57;62.66;97808.56;5105715;28;19938;-63
2022/06/29 03:10:06;;;;;;;;;;;;;;;20.57;62.88;97803.06;5110197;27;20389;-62
2022/06/29 03:12:34;;;;;;;;;;;;;;;20.54;63.09;97806.56;5105996;28;19938;-63
2022/06/29 03:15:04;;;;;;;;;;;;;;;20.53;62.97;97811.28;5099981;27;19989;-62
2022/06/29 03:17:32;;;;;;;;;;;;;;;20.53;62.91;97818.78;5102424;27;19935;-62
2022/06/29 03:20:01;;;;;;;;;;;;;;;20.50;62.99;97822.28;5106865;28;19982;-63
2022/06/29 03:22:29;;;;;;;;;;;;;;;20.49;63.00;97815.19;5103937;28;20836;-62
2022/06/29 03:24:57;;;;;;;;;;;;;;;20.56;62.87;97818.00;5103207;27;19919;-60
2022/06/29 03:27:26;;;;;;;;;;;;;;;20.50;63.14;97812.03;5109578;27;19927;-61
2022/06/29 03:29:54;;;;;;;;;;;;;;;20.52;63.25;97820.75;5108732;27;20332;-62
2022/06/29 03:32:23;;;;;;;;;;;;;;;20.53;63.10;97811.28;5104410;27;19920;-60
2022/06/29 03:34:51;;;;;;;;;;;;;;;20.52;63.13;97808.91;5097770;28;19931;-62
2022/06/29 03:37:19;;;;;;;;;;;;;;;20.34;63.88;97808.69;5091392;27;19920;-62
2022/06/29 03:39:49;;;;;;;;;;;;;;;20.48;63.49;97802.56;5101455;28;19991;-62
2022/06/29 03:42:20;;;;;;;;;;;;;;;20.41;63.58;97801.28;5106923;27;19941;-62
2022/06/29 03:44:50;;;;;;;;;;;;;;;20.38;63.34;97810.31;5102641;28;19934;-62
2022/06/29 03:47:20;;;;;;;;;;;;;;;20.34;63.80;97812.22;5097132;27;20052;-62
2022/06/29 03:49:50;;;;;;;;;;;;;;;20.39;63.60;97816.63;5107919;27;19920;-62
2022/06/29 03:52:43;;;;;;;;;;;;;;;20.36;63.61;97812.66;5090330;28;20003;-59
2022/06/29 03:55:11;;;;;;;;;;;;;;;20.45;63.17;97811.53;5102880;28;19962;-62
2022/06/29 03:57:39;;;;;;;;;;;;;;;20.46;63.67;97818.69;5105444;27;19926;-61
2022/06/29 04:00:09;;;;;;;;;;;;;;;20.45;63.57;97817.84;5099708;28;20220;-62
2022/06/29 04:02:40;;;;;;;;;;;;;;;20.50;63.29;97828.59;5100024;28;19997;-62
2022/06/29 04:05:10;;;;;;;;;;;;;;;20.45;63.77;97825.34;5099159;28;19923;-62
2022/06/29 04:07:38;;;;;;;;;;;;;;;20.40;63.65;97827.31;5094915;27;19977;-60
2022/06/29 04:10:06;;;;;;;;;;;;;;;20.45;63.50;97834.41;5107310;27;19923;-60
2022/06/29 04:12:35;;;;;;;;;;;;;;;20.35;63.96;97838.66;5105636;27;20039;-63
2022/06/29 04:15:04;;;;;;;;;;;;;;;20.36;64.10;97833.94;5100223;28;19926;-63
2022/06/29 04:17:32;;;;;;;;;;;;;;;20.46;63.67;97830.53;5100985;27;19996;-62
2022/06/29 04:20:00;;;;;;;;;;;;;;;20.44;64.07;97829.28;5108070;27;19939;-57
2022/06/29 04:22:31;;;;;;;;;;;;;;;20.48;63.67;97830.16;5098389;28;20371;-62
2022/06/29 04:24:59;;;;;;;;;;;;;;;20.50;63.94;97834.09;5098203;27;19928;-62
2022/06/29 04:27:27;;;;;;;;;;;;;;;20.48;63.76;97841.19;5094428;27;19946;-62
2022/06/29 04:29:55;;;;;;;;;;;;;;;20.47;63.76;97837.63;5107970;27;19969;-63
2022/06/29 04:32:24;;;;;;;;;;;;;;;20.51;63.79;97832.16;5083620;28;20295;-57
2022/06/29 04:34:53;;;;;;;;;;;;;;;20.47;63.88;97826.59;5100626;28;19920;-53
2022/06/29 04:37:24;;;;;;;;;;;;;;;20.51;63.75;97818.38;5090805;28;20408;-63
2022/06/29 04:39:54;;;;;;;;;;;;;;;20.55;63.90;97814.44;5114219;27;19926;-53
2022/06/29 04:42:22;;;;;;;;;;;;;;;20.54;63.85;97809.31;5104515;28;20328;-61
2022/06/29 04:44:50;;;;;;;;;;;;;;;20.49;64.10;97815.19;5101376;28;20356;-62
2022/06/29 04:47:25;;;;;;;;;;;;;;;20.54;64.04;97806.56;5099874;27;20006;-62
2022/06/29 04:49:53;;;;;;;;;;;;;;;20.57;63.85;97789.25;5094575;28;20297;-53
2022/06/29 04:55:14;;;;;;;;;;;;;;;20.64;63.72;97794.81;5101652;27;20132;-62
2022/06/29 04:57:42;;;;;;;;;;;;;;;20.63;63.69;97798.75;5105213;28;19992;-61
2022/06/29 05:00:11;;;;;;;;;;;;;;;20.64;63.43;97792.84;5095326;28;19946;-61
2022/06/29 05:02:39;;;;;;;;;;;;;;;20.63;63.63;97793.25;5101984;28;19920;-62
2022/06/29 05:05:08;;;;;;;;;;;;;;;20.65;63.62;97791.69;5095833;28;19984;-62
2022/06/29 05:07:36;;;;;;;;;;;;;;;20.67;63.42;97794.88;5104075;27;19924;-63
2022/06/29 05:10:05;;;;;;;;;;;;;;;20.65;63.58;97802.72;5106593;27;20013;-60
2022/06/29 05:12:34;;;;;;;;;;;;;;;20.71;63.96;97799.59;5093459;28;19932;-62
2022/06/29 05:15:08;;;;;;;;;;;;;;;20.78;63.35;97803.25;5099547;28;19971;-58
2022/06/29 05:17:37;;;;;;;;;;;;;;;20.94;62.61;97802.97;5104082;28;20344;-62
2022/06/29 05:20:06;;;;;;;;;;;;;;;20.81;63.50;97804.44;5094297;28;19924;-59
2022/06/29 05:22:34;;;;;;;;;;;;;;;20.87;63.27;97816.72;5105076;27;19919;-63
2022/06/29 05:25:02;;;;;;;;;;;;;;;20.97;62.89;97821.53;5101537;27;20358;-63
2022/06/29 05:27:30;;;;;;;;;;;;;;;20.84;63.36;97818.28;5101380;27;20350;-62
2022/06/29 05:30:00;;;;;;;;;;;;;;;20.78;63.46;97819.81;5098197;27;20350;-63
2022/06/29 05:32:28;;;;;;;;;;;;;;;20.79;63.31;97824.16;5096400;28;20362;-56
2022/06/29 05:34:56;;;;;;;;;;;;;;;20.74;63.73;97821.75;5094627;28;19924;-59
2022/06/29 05:37:25;;;;;;;;;;;;;;;20.82;63.27;97820.59;5098053;28;19931;-62
2022/06/29 05:39:55;;;;;;;;;;;;;;;20.85;63.47;97828.16;5099185;28;19927;-54
2022/06/29 05:42:25;;;;;;;;;;;;;;;21.00;62.74;97828.28;5095378;28;20534;-61
2022/06/29 05:44:56;;;;;;;;;;;;;;;20.92;63.21;97825.44;5099744;28;19923;-60
2022/06/29 05:47:26;;;;;;;;;;;;;;;20.95;62.78;97821.13;5102001;28;19920;-59
2022/06/29 05:50:00;;;;;;;;;;;;;;;21.14;62.50;97822.84;5098279;28;19926;-61
2022/06/29 05:52:53;;;;;;;;;;;;;;;21.08;62.73;97819.66;5095392;28;20289;-58
2022/06/29 05:55:21;;;;;;;;;;;;;;;21.12;62.71;97830.72;5102270;28;20328;-62
2022/06/29 05:57:49;;;;;;;;;;;;;;;21.19;62.39;97825.25;5100522;28;19924;-61
2022/06/29 06:03:11;;;;;;;;;;;;;;;21.13;62.43;97832.31;5100782;28;19942;-54
2022/06/29 06:05:39;;;;;;;;;;;;;;;21.09;62.49;97825.97;5102509;28;19970;-59
2022/06/29 06:08:07;;;;;;;;;;;;;;;20.86;62.99;97828.94;5097288;28;19920;-61
2022/06/29 06:10:35;;;;;;;;;;;;;;;20.93;63.00;97829.81;5101349;28;19979;-62
2022/06/29 06:13:05;;;;;;;;;;;;;;;20.98;63.05;97831.41;5078588;28;19965;-62
2022/06/29 06:15:33;;;;;;;;;;;;;;;21.00;63.29;97828.28;5099065;28;19952;-61
2022/06/29 06:18:02;;;;;;;;;;;;;;;21.07;62.80;97839.38;5100327;28;19936;-61
2022/06/29 06:20:32;;;;;;;;;;;;;;;21.07;62.94;97831.09;5097493;28;20352;-58
2022/06/29 06:23:02;;;;;;;;;;;;;;;21.00;63.40;97842.09;5097825;28;19924;-61
2022/06/29 06:25:30;;;;;;;;;;;;;;;21.04;63.09;97846.47;5096009;28;19942;-60
2022/06/29 06:28:05;;;;;;;;;;;;;;;21.11;63.14;97848.50;5101793;28;19920;-61
2022/06/29 06:30:33;;;;;;;;;;;;;;;21.22;62.63;97852.13;5102956;28;20266;-61
2022/06/29 06:33:02;;;;;;;;;;;;;;;21.11;62.96;97851.25;5097522;28;20356;-62
2022/06/29 06:35:55;;;;;;;;;;;;;;;21.12;62.98;97842.56;5050739;28;20373;-62
2022/06/29 06:38:23;;;;;;;;;;;;;;;21.13;63.10;97846.13;5056416;28;19960;-57
2022/06/29 06:43:43;;;;;;;;;;;;;;;21.10;63.11;97852.44;5061686;28;19983;-61
2022/06/29 06:46:16;;;;;;;;;;;;;;;21.11;63.11;97843.75;5062419;28;20361;-61
2022/06/29 06:48:44;;;;;;;;;;;;;;;21.06;62.96;97843.31;5058342;28;20348;-59
2022/06/29 06:51:16;;;;;;;;;;;;;;;21.15;62.98;97849.31;5060466;28;19937;-60
2022/06/29 06:53:44;;;;;;;;;;;;;;;21.14;62.91;97845.72;5057312;28;19920;-61
2022/06/29 06:56:14;;;;;;;;;;;;;;;21.17;63.03;97838.66;5060561;28;19924;-59
2022/06/29 06:58:43;;;;;;;;;;;;;;;21.15;62.96;97838.25;5056656;28;20308;-56
2022/06/29 07:01:16;;;;;;;;;;;;;;;21.17;63.07;97825.66;5057255;28;20019;-60
2022/06/29 07:03:44;;;;;;;;;;;;;;;21.16;63.27;97834.31;5057141;28;19927;-61
2022/06/29 07:06:16;;;;;;;;;;;;;;;21.19;63.74;97822.50;5054727;28;19924;-60
2022/06/29 07:08:44;;;;;;;;;;;;;;;21.29;62.83;97819.00;5058554;28;19920;-61
2022/06/29 07:11:15;;;;;;;;;;;;;;;21.36;62.51;97816.34;5062035;28;20346;-61
2022/06/29 07:13:43;;;;;;;;;;;;;;;21.40;62.43;97816.34;5062742;28;20055;-61
2022/06/29 07:16:17;;;;;;;;;;;;;;;21.54;62.15;97816.44;5058355;28;19924;-61
2022/06/29 07:18:45;;;;;;;;;;;;;;;21.59;62.26;97815.28;5058854;28;19920;-59
2022/06/29 07:21:17;;;;;;;;;;;;;;;21.52;61.65;97818.00;5063604;28;19925;-62
2022/06/29 07:26:37;;;;;;;;;;;;;;;21.78;61.66;97814.97;5062155;28;19939;-57
2022/06/29 07:29:05;;;;;;;;;;;;;;;21.81;60.74;97803.16;5060289;28;19925;-61
2022/06/29 07:31:33;;;;;;;;;;;;;;;21.77;60.51;97805.09;5061671;28;19979;-61
2022/06/29 07:34:01;;;;;;;;;;;;;;;21.73;61.27;97806.25;5074671;28;19935;-62
2022/06/29 07:36:31;;;;;;;;;;;;;;;21.81;60.57;97791.31;5099665;28;20367;-62
2022/06/29 07:38:59;;;;;;;;;;;;;;;21.88;60.69;97792.13;5104194;28;20006;-63
2022/06/29 07:41:27;;;;;;;;;;;;;;;22.11;60.38;97785.53;5096076;28;20015;-65
2022/06/29 07:43:56;;;;;;;;;;;;;;;21.95;60.27;97778.34;5098302;28;20355;-60
2022/06/29 07:46:24;;;;;;;;;;;;;;;22.03;60.01;97775.59;5098230;28;19939;-60
2022/06/29 07:48:53;;;;;;;;;;;;;;;22.19;59.24;97779.59;5098293;28;19954;-55
2022/06/29 07:51:21;;;;;;;;;;;;;;;22.18;59.34;97783.56;5101639;27;20338;-60
2022/06/29 07:53:51;;;;;;;;;;;;;;;22.12;59.38;97784.34;5102968;27;19931;-58
2022/06/29 07:56:19;;;;;;;;;;;;;;;22.42;58.78;97784.78;5101938;28;20445;-61
2022/06/29 07:58:52;;;;;;;;;;;;;;;22.42;59.09;97787.56;5104583;28;19926;-53
2022/06/29 08:01:20;;;;;;;;;;;;;;;22.30;58.78;97792.69;5097046;28;19924;-63
2022/06/29 08:03:48;;;;;;;;;;;;;;;22.35;58.84;97795.84;5101134;28;19931;-63
2022/06/29 08:06:16;;;;;;;;;;;;;;;22.44;58.51;97787.97;5098523;27;19940;-59
2022/06/29 08:08:44;;;;;;;;;;;;;;;22.61;58.43;97794.72;5097608;28;20272;-60
2022/06/29 08:11:17;;;;;;;;;;;;;;;22.60;57.96;97787.59;5103702;28;20041;-63
2022/06/29 08:13:45;;;;;;;;;;;;;;;22.40;58.92;97787.16;5104420;28;20460;-56
2022/06/29 08:16:16;;;;;;;;;;;;;;;22.52;58.91;97777.69;5097410;28;19981;-63
2022/06/29 08:18:44;;;;;;;;;;;;;;;22.79;58.69;97780.09;5086280;28;20390;-64
2022/06/29 08:21:15;;;;;;;;;;;;;;;23.03;57.10;97781.31;5103200;28;20188;-64
2022/06/29 08:23:43;;;;;;;;;;;;;;;22.98;56.27;97779.72;5097403;28;20086;-61
2022/06/29 08:26:40;;;;;;;;;;;;;;;22.88;57.12;97775.78;5098270;28;19938;-63
2022/06/29 08:29:28;;;;;;;;;;;;;;;22.85;57.40;97781.28;5098575;28;20352;-63
2022/06/29 08:31:56;;;;;;;;;;;;;;;22.79;57.85;97783.66;5095107;28;19946;-63
2022/06/29 08:34:24;;;;;;;;;;;;;;;22.88;56.60;97772.22;5096575;28;20340;-63
2022/06/29 08:36:52;;;;;;;;;;;;;;;22.84;57.42;97785.22;5107494;28;19923;-63
2022/06/29 08:39:21;;;;;;;;;;;;;;;22.76;57.66;97795.53;5107410;27;20026;-64
2022/06/29 08:41:50;;;;;;;;;;;;;;;22.59;57.77;97790.78;5110251;27;20366;-62
2022/06/29 08:44:18;;;;;;;;;;;;;;;22.56;58.62;97795.09;5110679;27;19963;-63
2022/06/29 08:46:50;;;;;;;;;;;;;;;22.72;58.15;97786.41;5101089;27;19921;-63
2022/06/29 08:49:19;;;;;;;;;;;;;;;22.74;57.76;97795.94;5111346;27;19919;-62
2022/06/29 08:51:47;;;;;;;;;;;;;;;22.77;58.10;97786.03;5108577;27;19977;-61
2022/06/29 08:54:16;;;;;;;;;;;;;;;22.86;58.18;97791.19;5111843;27;20496;-63
2022/06/29 08:56:44;;;;;;;;;;;;;;;22.85;57.62;97787.63;5113519;27;19923;-62
2022/06/29 08:59:14;;;;;;;;;;;;;;;22.81;57.52;97795.13;5096934;28;20806;-65
2022/06/29 09:01:42;;;;;;;;;;;;;;;22.73;58.14;97788.00;5100073;28;20289;-65
2022/06/29 09:04:34;;;;;;;;;;;;;;;22.68;58.07;97782.84;5090339;28;19924;-64
2022/06/29 09:07:02;;;;;;;;;;;;;;;22.69;58.62;97781.66;5104002;27;19920;-67
2022/06/29 09:09:30;;;;;;;;;;;;;;;22.72;58.28;97786.41;5109846;27;19972;-65
2022/06/29 09:11:59;;;;;;;;;;;;;;;22.79;58.40;97780.09;5107361;28;19946;-64
2022/06/29 09:14:29;;;;;;;;;;;;;;;22.84;58.05;97772.19;5100505;27;19919;-63
2022/06/29 09:19:53;;;;;;;;;;;;;;;22.79;57.91;97775.34;5107036;27;19927;-61
2022/06/29 09:22:42;;;;;;;;;;;;;;;22.70;59.03;97780.50;5100519;28;19927;-64
2022/06/29 09:28:20;;;;;;;;;;;;;;;22.59;59.97;97776.94;5099130;27;20421;-60
2022/06/29 09:30:49;;;;;;;;;;;;;;;22.60;59.57;97767.44;5100958;28;19923;-64
2022/06/29 09:33:18;;;;;;;;;;;;;;;22.64;59.52;97773.78;5095766;28;19920;-65
2022/06/29 09:35:46;;;;;;;;;;;;;;;22.72;59.55;97770.59;5100293;27;19942;-61
2022/06/29 09:38:21;;;;;;;;;;;;;;;22.83;59.85;97770.59;5100160;27;20268;-65
2022/06/29 09:43:51;;;;;;;;;;;;;;;23.09;59.45;97771.41;5096458;28;19920;-64
2022/06/29 09:46:20;;;;;;;;;;;;;;;22.84;58.94;97774.94;5098239;27;19920;-64
2022/06/29 09:48:48;;;;;;;;;;;;;;;22.95;59.15;97770.22;5105789;27;19940;-64
2022/06/29 09:51:32;;;;;;;;;;;;;;;22.99;59.28;97768.25;5104323;28;19920;-65
2022/06/29 09:54:01;;;;;;;;;;;;;;;23.03;59.24;97770.22;5097819;28;19934;-56
2022/06/29 09:56:29;;;;;;;;;;;;;;;23.02;58.97;97771.44;5095152;28;20310;-60
2022/06/29 09:58:58;;;;;;;;;;;;;;;23.09;59.13;97771.41;5096077;28;19977;-64
2022/06/29 10:04:19;;;;;;;;;;;;;;;23.34;57.87;97766.63;5096300;28;19919;-62
2022/06/29 10:06:48;;;;;;;;;;;;;;;23.45;58.77;97767.38;5101422;28;19920;-62
2022/06/29 10:09:15;;;;;;;;;;;;;;;23.63;57.94;97769.34;5095007;28;19978;-61
2022/06/29 10:14:37;;;;;;;;;;;;;;;23.77;56.23;97755.44;5102956;28;20344;-63
2022/06/29 10:17:12;;;;;;;;;;;;;;;23.79;56.47;97750.25;5096569;28;19927;-63
2022/06/29 10:19:43;;;;;;;;;;;;;;;23.82;56.27;97752.25;5106560;28;20061;-63
2022/06/29 10:22:11;;;;;;;;;;;;;;;23.90;56.52;97748.22;5101637;28;19927;-63
2022/06/29 10:24:40;;;;;;;;;;;;;;;23.96;56.91;97749.38;5105306;28;19919;-63
2022/06/29 10:27:11;;;;;;;;;;;;;;;24.07;55.96;97743.00;5097482;28;19978;-62
2022/06/29 10:29:39;;;;;;;;;;;;;;;24.09;55.63;97746.16;5111476;28;20359;-63
2022/06/29 10:32:18;;;;;;;;;;;;;;;24.24;55.96;97753.22;5099444;28;19943;-63
2022/06/29 10:37:32;;;;;;;;;;;;;;;24.42;54.86;97745.59;5092707;28;19934;-64
2022/06/29 10:40:08;;;;;;;;;;;;;;;24.63;54.67;97732.75;5094420;28;20025;-64
2022/06/29 10:45:24;;;;;;;;;;;;;;;24.77;53.23;97727.88;5105256;28;19923;-64
2022/06/29 10:48:12;;;;;;;;;;;;;;;24.67;53.26;97733.50;5104582;28;19920;-52
2022/06/29 10:50:42;;;;;;;;;;;;;;;24.80;53.25;97732.59;5102320;28;19927;-63
2022/06/29 10:53:10;;;;;;;;;;;;;;;24.93;53.17;97730.09;5101765;28;19919;-58
2022/06/29 10:55:40;;;;;;;;;;;;;;;24.93;52.47;97734.84;5097512;28;20040;-64
2022/06/29 10:58:08;;;;;;;;;;;;;;;24.95;52.47;97726.91;5104324;28;19924;-63
2022/06/29 11:00:38;;;;;;;;;;;;;;;24.97;51.64;97728.06;5084942;28;19927;-62
2022/06/29 11:03:07;;;;;;;;;;;;;;;25.03;51.84;97729.19;5106401;28;20432;-64
2022/06/29 11:05:37;;;;;;;;;;;;;;;25.11;52.48;97724.41;5103782;28;20015;-63
2022/06/29 11:13:38;;;;;;;;;;;;;;;25.36;51.87;97721.38;5102642;28;19928;-62
2022/06/29 11:16:07;;;;;;;;;;;;;;;25.55;51.81;97722.72;5106312;28;19967;-63
2022/06/29 11:18:35;;;;;;;;;;;;;;;25.48;50.87;97709.69;5105577;27;19924;-62
2022/06/29 11:21:03;;;;;;;;;;;;;;;25.47;51.43;97722.03;5108040;28;20018;-62
2022/06/29 11:23:34;;;;;;;;;;;;;;;25.38;51.18;97721.72;5087164;28;19935;-63
2022/06/29 11:26:02;;;;;;;;;;;;;;;25.45;51.45;97716.06;5097481;28;19927;-60
2022/06/29 11:28:30;;;;;;;;;;;;;;;25.38;50.93;97710.59;5104409;28;19931;-63
2022/06/29 11:31:03;;;;;;;;;;;;;;;25.38;50.87;97718.16;5103724;28;19972;-63
2022/06/29 11:33:32;;;;;;;;;;;;;;;25.29;51.31;97707.53;5106324;28;19969;-61
2022/06/29 11:36:03;;;;;;;;;;;;;;;25.42;51.16;97705.81;5109879;27;19957;-63
2022/06/29 11:38:56;;;;;;;;;;;;;;;25.22;51.63;97713.16;5101085;28;19927;-64
2022/06/29 11:41:27;;;;;;;;;;;;;;;25.16;51.34;97700.94;5099669;28;19927;-63
2022/06/29 11:44:03;;;;;;;;;;;;;;;25.30;50.92;97709.09;5101915;28;19935;-62
2022/06/29 11:46:32;;;;;;;;;;;;;;;25.23;51.20;97704.41;5094666;28;20034;-61
2022/06/29 11:51:50;;;;;;;;;;;;;;;25.10;51.48;97708.16;5098721;27;19931;-56
2022/06/29 11:54:18;;;;;;;;;;;;;;;25.25;51.19;97696.47;5096382;27;19924;-63
2022/06/29 11:56:49;;;;;;;;;;;;;;;25.12;50.82;97697.38;5104934;27;19920;-60
2022/06/29 11:59:18;;;;;;;;;;;;;;;25.25;50.92;97696.47;5108210;27;19926;-61
2022/06/29 12:01:53;;;;;;;;;;;;;;;25.23;50.92;97695.28;5106232;28;19969;-59
2022/06/29 12:04:28;;;;;;;;;;;;;;;25.16;51.02;97703.72;5108601;27;19920;-61
2022/06/29 12:07:22;;;;;;;;;;;;;;;25.25;50.61;97692.91;5103615;27;19930;-63
2022/06/29 12:09:50;;;;;;;;;;;;;;;25.21;50.74;97694.91;5113186;27;20292;-63
2022/06/29 12:12:19;;;;;;;;;;;;;;;25.13;50.41;97685.84;5103459;28;19978;-62
2022/06/29 12:14:48;;;;;;;;;;;;;;;25.33;49.97;97691.59;5107205;27;20009;-63
2022/06/29 12:17:19;;;;;;;;;;;;;;;25.36;49.28;97681.66;5104143;27;19932;-63
2022/06/29 12:19:47;;;;;;;;;;;;;;;25.37;49.27;97680.44;5111549;27;19945;-61
2022/06/29 12:22:15;;;;;;;;;;;;;;;25.49;49.31;97683.47;5102941;28;19919;-63
2022/06/29 12:24:43;;;;;;;;;;;;;;;25.26;48.45;97686.13;5098581;28;20087;-63
2022/06/29 12:27:12;;;;;;;;;;;;;;;25.35;49.49;97689.19;5104974;28;19959;-62
2022/06/29 12:29:42;;;;;;;;;;;;;;;25.44;48.64;97675.56;5101177;28;19920;-65
2022/06/29 12:32:12;;;;;;;;;;;;;;;25.46;48.65;97673.19;5097961;28;20118;-62
2022/06/29 12:34:42;;;;;;;;;;;;;;;25.55;48.59;97673.44;5107647;27;19931;-63
2022/06/29 12:37:10;;;;;;;;;;;;;;;25.77;48.16;97681.53;5093550;28;19920;-61
2022/06/29 12:39:43;;;;;;;;;;;;;;;25.82;47.45;97672.72;5095795;28;19972;-63
2022/06/29 12:42:13;;;;;;;;;;;;;;;25.96;46.88;97668.97;5099764;28;20240;-62
2022/06/29 12:44:46;;;;;;;;;;;;;;;25.87;46.10;97669.47;5095379;28;19944;-63
2022/06/29 12:47:14;;;;;;;;;;;;;;;25.97;46.51;97668.53;5101046;27;20019;-63
2022/06/29 12:49:42;;;;;;;;;;;;;;;25.91;47.73;97675.00;5093548;28;20259;-63
2022/06/29 12:52:12;;;;;;;;;;;;;;;25.78;47.66;97674.75;5101192;28;20002;-59
2022/06/29 12:55:05;;;;;;;;;;;;;;;25.76;47.50;97669.63;5099410;28;19923;-62
2022/06/29 12:57:33;;;;;;;;;;;;;;;25.54;47.59;97671.09;5093860;28;19934;-63
2022/06/29 13:00:03;;;;;;;;;;;;;;;25.51;47.84;97669.91;5093621;28;19920;-63
2022/06/29 13:02:31;;;;;;;;;;;;;;;25.58;47.98;97675.41;5098768;28;20351;-56
2022/06/29 13:04:58;;;;;;;;;;;;;;;25.57;48.63;97681.38;5097226;28;19920;-62
2022/06/29 13:07:27;;;;;;;;;;;;;;;25.47;47.59;97683.09;5099315;27;19924;-59
2022/06/29 13:09:55;;;;;;;;;;;;;;;25.54;48.19;97680.22;5098179;28;19920;-60
2022/06/29 13:12:23;;;;;;;;;;;;;;;25.66;48.21;97686.44;5100614;28;19958;-52
2022/06/29 13:14:51;;;;;;;;;;;;;;;25.68;47.99;97676.47;5098962;28;19988;-63
2022/06/29 13:17:21;;;;;;;;;;;;;;;25.60;47.62;97678.53;5107657;27;20042;-62
2022/06/29 13:19:50;;;;;;;;;;;;;;;25.74;47.97;97672.06;5100698;28;20256;-63
2022/06/29 13:22:22;;;;;;;;;;;;;;;25.80;47.57;97677.94;5091529;28;20028;-63
2022/06/29 13:24:50;;;;;;;;;;;;;;;25.78;47.99;97678.38;5095275;28;19931;-63
2022/06/29 13:27:18;;;;;;;;;;;;;;;25.79;47.27;97676.38;5101892;28;19923;-62
2022/06/29 13:29:47;;;;;;;;;;;;;;;25.65;47.36;97673.72;5095867;28;19931;-62
2022/06/29 13:32:17;;;;;;;;;;;;;;;25.70;48.04;97670.47;5098392;28;20292;-63
2022/06/29 13:34:47;;;;;;;;;;;;;;;25.75;48.08;97678.41;5100027;28;19920;-61
2022/06/29 13:37:15;;;;;;;;;;;;;;;25.90;47.68;97668.66;5089156;28;20351;-61
2022/06/29 13:39:44;;;;;;;;;;;;;;;26.02;47.53;97664.50;5094330;28;19928;-61
2022/06/29 13:42:15;;;;;;;;;;;;;;;26.25;46.99;97669.31;5101793;28;20239;-62
2022/06/29 13:44:45;;;;;;;;;;;;;;;26.37;46.65;97675.09;5098352;28;20444;-57
2022/06/29 13:47:15;;;;;;;;;;;;;;;26.44;45.92;97674.22;5098445;28;19931;-60
2022/06/29 13:49:45;;;;;;;;;;;;;;;26.39;45.22;97671.91;5097984;28;19939;-62